createdAt,value
2022-11-29T00:00:23.672Z,988.54
2022-11-29T00:01:25.392Z,988.49
2022-11-29T00:02:27.386Z,988.57
2022-11-29T00:03:28.996Z,988.54
2022-11-29T00:04:30.598Z,988.52
2022-11-29T00:05:32.328Z,988.55
2022-11-29T00:06:34.071Z,988.55
2022-11-29T00:07:35.853Z,988.5
2022-11-29T00:08:37.579Z,988.59
2022-11-29T00:09:39.260Z,988.59
2022-11-29T00:10:41.025Z,988.57
2022-11-29T00:11:42.776Z,988.57
2022-11-29T00:12:44.508Z,988.51
2022-11-29T00:13:46.226Z,988.56
2022-11-29T00:14:47.967Z,988.57
2022-11-29T00:15:49.709Z,988.57
2022-11-29T00:16:51.511Z,988.58
2022-11-29T00:17:53.135Z,988.6
2022-11-29T00:18:54.870Z,988.57
2022-11-29T00:19:56.596Z,988.57
2022-11-29T00:20:58.565Z,988.57
2022-11-29T00:22:00.103Z,988.54
2022-11-29T00:23:01.813Z,988.56
2022-11-29T00:24:03.549Z,988.51
2022-11-29T00:25:05.279Z,988.53
2022-11-29T00:26:07.017Z,988.55
2022-11-29T00:27:08.783Z,988.52
2022-11-29T00:28:10.459Z,988.48
2022-11-29T00:29:12.210Z,988.54
2022-11-29T00:30:13.942Z,988.57
2022-11-29T00:31:15.768Z,988.53
2022-11-29T00:32:17.444Z,988.55
2022-11-29T00:33:19.145Z,988.61
2022-11-29T00:34:20.921Z,988.59
2022-11-29T00:35:22.601Z,988.57
2022-11-29T00:36:24.330Z,988.6
2022-11-29T00:37:26.123Z,988.59
2022-11-29T00:38:27.854Z,988.6
2022-11-29T00:39:29.605Z,988.62
2022-11-29T00:40:31.274Z,988.57
2022-11-29T00:41:33.041Z,988.57
2022-11-29T00:42:34.774Z,988.62
2022-11-29T00:43:36.480Z,988.61
2022-11-29T00:44:38.210Z,988.63
2022-11-29T00:45:40.000Z,988.58
2022-11-29T00:46:41.719Z,988.6
2022-11-29T00:47:43.438Z,988.56
2022-11-29T00:48:45.146Z,988.6
2022-11-29T00:49:46.874Z,988.64
2022-11-29T00:50:48.619Z,988.63
2022-11-29T00:51:50.341Z,988.62
2022-11-29T00:52:52.083Z,988.66
2022-11-29T00:53:53.834Z,988.68
2022-11-29T00:54:55.556Z,988.62
2022-11-29T00:55:57.311Z,988.68
2022-11-29T00:56:59.068Z,988.65
2022-11-29T00:58:00.758Z,988.66
2022-11-29T00:59:02.482Z,988.65
2022-11-29T01:00:04.209Z,988.61
2022-11-29T01:01:05.988Z,988.69
2022-11-29T01:02:07.721Z,988.67
2022-11-29T01:03:09.422Z,988.67
2022-11-29T01:04:11.147Z,988.67
2022-11-29T01:05:12.890Z,988.67
2022-11-29T01:06:14.612Z,988.67
2022-11-29T01:07:16.467Z,988.61
2022-11-29T01:08:18.128Z,988.65
2022-11-29T01:09:19.873Z,988.62
2022-11-29T01:10:21.562Z,988.63
2022-11-29T01:11:23.290Z,988.67
2022-11-29T01:12:25.020Z,988.65
2022-11-29T01:13:26.784Z,988.68
2022-11-29T01:14:28.475Z,988.66
2022-11-29T01:15:30.212Z,988.65
2022-11-29T01:16:32.075Z,988.67
2022-11-29T01:17:33.672Z,988.66
2022-11-29T01:18:35.705Z,988.67
2022-11-29T01:19:37.199Z,988.7
2022-11-29T01:20:38.872Z,988.69
2022-11-29T01:21:40.618Z,988.66
2022-11-29T01:22:42.409Z,988.71
2022-11-29T01:23:44.102Z,988.72
2022-11-29T01:24:46.216Z,988.71
2022-11-29T01:25:47.615Z,988.69
2022-11-29T01:26:49.282Z,988.77
2022-11-29T01:27:51.026Z,988.74
2022-11-29T01:28:52.752Z,988.73
2022-11-29T01:29:54.492Z,988.75
2022-11-29T01:30:56.328Z,988.77
2022-11-29T01:31:57.992Z,988.79
2022-11-29T01:32:59.727Z,988.77
2022-11-29T01:34:01.448Z,988.82
2022-11-29T01:35:03.160Z,988.82
2022-11-29T01:36:04.905Z,988.88
2022-11-29T01:37:06.706Z,988.81
2022-11-29T01:38:08.419Z,988.88
2022-11-29T01:39:10.118Z,988.87
2022-11-29T01:40:11.827Z,988.89
2022-11-29T01:41:13.550Z,988.92
2022-11-29T01:42:15.319Z,988.92
2022-11-29T01:43:17.061Z,988.92
2022-11-29T01:44:18.833Z,988.94
2022-11-29T01:45:20.484Z,988.93
2022-11-29T01:46:22.296Z,988.96
2022-11-29T01:47:23.967Z,988.92
2022-11-29T01:48:25.746Z,988.99
2022-11-29T01:49:27.482Z,988.9
2022-11-29T01:50:29.157Z,988.95
2022-11-29T01:51:30.913Z,988.92
2022-11-29T01:52:32.703Z,988.93
2022-11-29T01:53:34.425Z,988.95
2022-11-29T01:54:36.155Z,988.92
2022-11-29T01:55:37.921Z,988.97
2022-11-29T01:56:39.585Z,988.98
2022-11-29T01:57:41.324Z,988.96
2022-11-29T01:58:43.057Z,988.94
2022-11-29T01:59:44.778Z,988.99
2022-11-29T02:00:46.515Z,988.92
2022-11-29T02:01:48.244Z,988.93
2022-11-29T02:02:50.023Z,988.91
2022-11-29T02:03:51.704Z,988.91
2022-11-29T02:04:53.457Z,988.94
2022-11-29T02:05:55.169Z,988.95
2022-11-29T02:06:56.898Z,988.94
2022-11-29T02:07:58.712Z,988.92
2022-11-29T02:09:00.354Z,988.92
2022-11-29T02:10:02.170Z,988.95
2022-11-29T02:11:03.858Z,988.86
2022-11-29T02:12:05.537Z,988.92
2022-11-29T02:13:07.261Z,988.92
2022-11-29T02:14:09.003Z,988.91
2022-11-29T02:15:10.720Z,988.9
2022-11-29T02:16:12.507Z,988.94
2022-11-29T02:17:14.171Z,988.98
2022-11-29T02:18:15.892Z,988.97
2022-11-29T02:19:17.625Z,988.93
2022-11-29T02:20:19.368Z,988.94
2022-11-29T02:21:21.110Z,988.99
2022-11-29T02:22:22.823Z,989.01
2022-11-29T02:23:24.564Z,988.97
2022-11-29T02:24:26.296Z,988.94
2022-11-29T02:25:28.030Z,988.95
2022-11-29T02:26:29.799Z,988.98
2022-11-29T02:27:31.519Z,988.94
2022-11-29T02:28:33.241Z,988.93
2022-11-29T02:29:34.994Z,988.9
2022-11-29T02:30:36.741Z,988.95
2022-11-29T02:31:38.471Z,988.93
2022-11-29T02:32:40.280Z,988.93
2022-11-29T02:33:41.929Z,988.96
2022-11-29T02:34:44.006Z,988.97
2022-11-29T02:35:45.359Z,988.96
2022-11-29T02:36:47.097Z,988.9
2022-11-29T02:37:48.821Z,988.99
2022-11-29T02:38:50.559Z,988.98
2022-11-29T02:39:52.289Z,989
2022-11-29T02:40:54.019Z,988.95
2022-11-29T02:41:55.762Z,988.95
2022-11-29T02:42:57.534Z,988.98
2022-11-29T02:43:59.241Z,988.99
2022-11-29T02:45:01.000Z,988.97
2022-11-29T02:46:02.854Z,988.98
2022-11-29T02:47:04.428Z,988.98
2022-11-29T02:48:06.206Z,988.97
2022-11-29T02:49:07.893Z,988.99
2022-11-29T02:50:09.682Z,989.01
2022-11-29T02:51:11.376Z,988.96
2022-11-29T02:52:13.100Z,989.02
2022-11-29T02:53:14.870Z,989.04
2022-11-29T02:54:16.561Z,988.99
2022-11-29T02:55:18.350Z,989.02
2022-11-29T02:56:20.037Z,989
2022-11-29T02:57:21.791Z,989.01
2022-11-29T02:58:23.503Z,989.03
2022-11-29T02:59:25.234Z,989.01
2022-11-29T03:00:26.995Z,988.99
2022-11-29T03:01:28.771Z,988.99
2022-11-29T03:02:30.504Z,989
2022-11-29T03:03:32.196Z,989
2022-11-29T03:04:33.911Z,988.97
2022-11-29T03:05:35.664Z,988.96
2022-11-29T03:06:37.414Z,989
2022-11-29T03:07:39.190Z,989.05
2022-11-29T03:08:40.879Z,989.04
2022-11-29T03:09:42.565Z,989.03
2022-11-29T03:10:44.314Z,989.05
2022-11-29T03:11:46.021Z,989.09
2022-11-29T03:12:47.812Z,989.03
2022-11-29T03:13:49.514Z,989.07
2022-11-29T03:14:51.230Z,989.04
2022-11-29T03:15:53.048Z,989.08
2022-11-29T03:16:54.699Z,989.11
2022-11-29T03:17:56.438Z,989.11
2022-11-29T03:18:58.206Z,989.13
2022-11-29T03:19:59.937Z,989.14
2022-11-29T03:21:01.652Z,989.14
2022-11-29T03:22:03.369Z,989.09
2022-11-29T03:23:05.123Z,989.1
2022-11-29T03:24:06.916Z,989.09
2022-11-29T03:25:08.559Z,989.09
2022-11-29T03:26:10.334Z,989.09
2022-11-29T03:27:12.035Z,989.12
2022-11-29T03:28:13.772Z,989.09
2022-11-29T03:29:15.515Z,989.14
2022-11-29T03:30:17.280Z,989.13
2022-11-29T03:31:19.061Z,989.15
2022-11-29T03:32:20.725Z,989.17
2022-11-29T03:33:22.472Z,989.13
2022-11-29T03:34:24.205Z,989.18
2022-11-29T03:35:25.962Z,989.07
2022-11-29T03:36:27.715Z,989.16
2022-11-29T03:37:29.399Z,989.2
2022-11-29T03:38:31.130Z,989.18
2022-11-29T03:39:32.857Z,989.13
2022-11-29T03:40:34.596Z,989.17
2022-11-29T03:41:36.361Z,989.16
2022-11-29T03:42:38.080Z,989.18
2022-11-29T03:43:39.820Z,989.15
2022-11-29T03:44:41.585Z,989.19
2022-11-29T03:45:43.308Z,989.21
2022-11-29T03:46:45.023Z,989.19
2022-11-29T03:47:46.736Z,989.23
2022-11-29T03:48:48.515Z,989.22
2022-11-29T03:49:50.240Z,989.25
2022-11-29T03:50:51.950Z,989.28
2022-11-29T03:51:53.647Z,989.21
2022-11-29T03:52:55.407Z,989.29
2022-11-29T03:53:57.176Z,989.3
2022-11-29T03:54:58.881Z,989.3
2022-11-29T03:56:00.597Z,989.33
2022-11-29T03:57:02.318Z,989.31
2022-11-29T03:58:04.063Z,989.32
2022-11-29T03:59:05.810Z,989.39
2022-11-29T04:00:07.539Z,989.36
2022-11-29T04:01:09.344Z,989.38
2022-11-29T04:02:11.036Z,989.31
2022-11-29T04:03:12.769Z,989.31
2022-11-29T04:04:14.457Z,989.29
2022-11-29T04:05:16.218Z,989.33
2022-11-29T04:06:17.947Z,989.3
2022-11-29T04:07:19.755Z,989.32
2022-11-29T04:08:21.414Z,989.33
2022-11-29T04:09:23.121Z,989.26
2022-11-29T04:10:24.900Z,989.3
2022-11-29T04:11:26.599Z,989.33
2022-11-29T04:12:28.321Z,989.32
2022-11-29T04:13:30.104Z,989.33
2022-11-29T04:14:31.794Z,989.32
2022-11-29T04:15:33.630Z,989.34
2022-11-29T04:16:35.274Z,989.36
2022-11-29T04:17:37.030Z,989.34
2022-11-29T04:18:38.723Z,989.35
2022-11-29T04:19:40.495Z,989.39
2022-11-29T04:20:46.789Z,989.3
2022-11-29T04:21:43.909Z,989.39
2022-11-29T04:22:45.707Z,989.41
2022-11-29T04:23:47.483Z,989.41
2022-11-29T04:24:49.231Z,989.39
2022-11-29T04:25:50.947Z,989.35
2022-11-29T04:26:52.632Z,989.42
2022-11-29T04:27:54.344Z,989.41
2022-11-29T04:28:56.127Z,989.48
2022-11-29T04:29:57.804Z,989.41
2022-11-29T04:30:59.620Z,989.42
2022-11-29T04:32:01.272Z,989.43
2022-11-29T04:33:03.045Z,989.45
2022-11-29T04:34:04.730Z,989.5
2022-11-29T04:35:06.507Z,989.45
2022-11-29T04:36:08.219Z,989.46
2022-11-29T04:37:10.008Z,989.44
2022-11-29T04:38:11.707Z,989.49
2022-11-29T04:39:13.394Z,989.47
2022-11-29T04:40:15.127Z,989.46
2022-11-29T04:41:16.932Z,989.48
2022-11-29T04:42:18.600Z,989.48
2022-11-29T04:43:20.366Z,989.49
2022-11-29T04:44:22.099Z,989.5
2022-11-29T04:45:23.800Z,989.5
2022-11-29T04:46:25.618Z,989.5
2022-11-29T04:47:27.271Z,989.52
2022-11-29T04:48:29.032Z,989.55
2022-11-29T04:49:30.755Z,989.58
2022-11-29T04:50:32.491Z,989.54
2022-11-29T04:51:34.201Z,989.58
2022-11-29T04:52:35.966Z,989.56
2022-11-29T04:53:37.664Z,989.6
2022-11-29T04:54:39.388Z,989.64
2022-11-29T04:55:41.135Z,989.64
2022-11-29T04:56:42.936Z,989.65
2022-11-29T04:57:44.593Z,989.64
2022-11-29T04:58:46.330Z,989.67
2022-11-29T04:59:48.104Z,989.67
2022-11-29T05:00:49.804Z,989.67
2022-11-29T05:01:51.599Z,989.71
2022-11-29T05:02:53.376Z,989.76
2022-11-29T05:03:57.310Z,989.76
2022-11-29T05:04:56.718Z,989.75
2022-11-29T05:05:58.473Z,989.73
2022-11-29T05:07:00.201Z,989.77
2022-11-29T05:08:01.901Z,989.75
2022-11-29T05:09:03.647Z,989.75
2022-11-29T05:10:05.334Z,989.76
2022-11-29T05:11:07.052Z,989.75
2022-11-29T05:12:08.777Z,989.81
2022-11-29T05:13:10.521Z,989.83
2022-11-29T05:14:12.280Z,989.8
2022-11-29T05:15:13.987Z,989.82
2022-11-29T05:16:15.878Z,989.81
2022-11-29T05:17:17.509Z,989.82
2022-11-29T05:18:19.190Z,989.84
2022-11-29T05:19:20.984Z,989.86
2022-11-29T05:20:22.655Z,989.88
2022-11-29T05:21:24.403Z,989.88
2022-11-29T05:22:26.165Z,989.88
2022-11-29T05:23:27.891Z,989.84
2022-11-29T05:24:29.594Z,989.86
2022-11-29T05:25:31.336Z,989.87
2022-11-29T05:26:33.074Z,989.94
2022-11-29T05:27:34.793Z,989.92
2022-11-29T05:28:36.519Z,989.9
2022-11-29T05:29:38.316Z,989.9
2022-11-29T05:30:40.027Z,989.96
2022-11-29T05:31:41.737Z,989.95
2022-11-29T05:32:43.459Z,989.94
2022-11-29T05:33:45.212Z,989.96
2022-11-29T05:34:47.397Z,989.98
2022-11-29T05:35:48.651Z,989.98
2022-11-29T05:36:50.399Z,989.98
2022-11-29T05:37:52.165Z,989.98
2022-11-29T05:38:53.856Z,990.03
2022-11-29T05:39:55.610Z,990.02
2022-11-29T05:40:57.365Z,990
2022-11-29T05:41:59.065Z,989.96
2022-11-29T05:43:00.848Z,990
2022-11-29T05:44:02.547Z,989.97
2022-11-29T05:45:04.256Z,990.01
2022-11-29T05:46:06.042Z,990
2022-11-29T05:47:07.716Z,990.02
2022-11-29T05:48:09.488Z,989.96
2022-11-29T05:49:11.214Z,989.96
2022-11-29T05:50:12.920Z,989.97
2022-11-29T05:51:14.677Z,989.96
2022-11-29T05:52:16.380Z,990.02
2022-11-29T05:53:18.134Z,990.03
2022-11-29T05:54:19.868Z,989.98
2022-11-29T05:55:21.602Z,989.96
2022-11-29T05:56:23.329Z,990.04
2022-11-29T05:57:25.051Z,989.98
2022-11-29T05:58:30.311Z,990.04
2022-11-29T05:59:28.570Z,989.98
2022-11-29T06:00:30.262Z,990.05
2022-11-29T06:01:32.002Z,990.04
2022-11-29T06:02:33.734Z,990.07
2022-11-29T06:03:35.464Z,990.1
2022-11-29T06:04:37.241Z,990.17
2022-11-29T06:05:38.925Z,990.17
2022-11-29T06:06:40.681Z,990.13
2022-11-29T06:07:42.475Z,990.11
2022-11-29T06:08:44.126Z,990.15
2022-11-29T06:09:45.865Z,990.17
2022-11-29T06:10:47.586Z,990.17
2022-11-29T06:11:49.345Z,990.21
2022-11-29T06:12:51.064Z,990.17
2022-11-29T06:13:52.805Z,990.21
2022-11-29T06:14:54.569Z,990.2
2022-11-29T06:15:56.384Z,990.23
2022-11-29T06:16:58.025Z,990.23
2022-11-29T06:17:59.766Z,990.32
2022-11-29T06:19:01.496Z,990.3
2022-11-29T06:20:03.222Z,990.27
2022-11-29T06:21:04.952Z,990.27
2022-11-29T06:22:06.663Z,990.26
2022-11-29T06:23:08.444Z,990.25
2022-11-29T06:24:10.134Z,990.3
2022-11-29T06:25:11.870Z,990.32
2022-11-29T06:26:13.623Z,990.28
2022-11-29T06:27:15.341Z,990.28
2022-11-29T06:28:17.080Z,990.27
2022-11-29T06:29:18.847Z,990.27
2022-11-29T06:30:20.537Z,990.29
2022-11-29T06:31:22.349Z,990.32
2022-11-29T06:32:24.015Z,990.33
2022-11-29T06:33:25.760Z,990.31
2022-11-29T06:34:30.719Z,990.32
2022-11-29T06:35:29.229Z,990.34
2022-11-29T06:36:31.092Z,990.32
2022-11-29T06:37:32.708Z,990.35
2022-11-29T06:38:34.418Z,990.35
2022-11-29T06:39:36.189Z,990.35
2022-11-29T06:40:37.907Z,990.36
2022-11-29T06:41:39.638Z,990.4
2022-11-29T06:42:41.345Z,990.4
2022-11-29T06:43:43.088Z,990.42
2022-11-29T06:44:45.160Z,990.4
2022-11-29T06:45:46.551Z,990.4
2022-11-29T06:46:48.471Z,990.39
2022-11-29T06:47:50.012Z,990.47
2022-11-29T06:48:51.768Z,990.46
2022-11-29T06:49:53.486Z,990.47
2022-11-29T06:50:55.230Z,990.45
2022-11-29T06:51:56.972Z,990.49
2022-11-29T06:52:58.686Z,990.52
2022-11-29T06:54:00.452Z,990.51
2022-11-29T06:55:02.149Z,990.56
2022-11-29T06:56:03.887Z,990.54
2022-11-29T06:57:05.665Z,990.5
2022-11-29T06:58:07.356Z,990.58
2022-11-29T06:59:09.132Z,990.54
2022-11-29T07:00:10.859Z,990.54
2022-11-29T07:01:12.720Z,990.58
2022-11-29T07:02:14.364Z,990.6
2022-11-29T07:03:16.021Z,990.63
2022-11-29T07:04:17.775Z,990.65
2022-11-29T07:05:19.506Z,990.65
2022-11-29T07:06:21.261Z,990.57
2022-11-29T07:07:23.045Z,990.64
2022-11-29T07:08:24.677Z,990.68
2022-11-29T07:09:26.408Z,990.73
2022-11-29T07:10:28.182Z,990.72
2022-11-29T07:11:29.925Z,990.68
2022-11-29T07:12:31.565Z,990.73
2022-11-29T07:13:33.289Z,990.72
2022-11-29T07:14:35.015Z,990.74
2022-11-29T07:15:36.733Z,990.71
2022-11-29T07:16:38.526Z,990.73
2022-11-29T07:17:40.225Z,990.73
2022-11-29T07:18:41.911Z,990.74
2022-11-29T07:19:43.683Z,990.77
2022-11-29T07:20:45.390Z,990.73
2022-11-29T07:21:47.117Z,990.77
2022-11-29T07:22:48.834Z,990.75
2022-11-29T07:23:50.545Z,990.8
2022-11-29T07:24:52.260Z,990.81
2022-11-29T07:25:54.024Z,990.84
2022-11-29T07:26:59.572Z,990.8
2022-11-29T07:27:57.421Z,990.83
2022-11-29T07:28:59.184Z,990.81
2022-11-29T07:30:00.883Z,990.85
2022-11-29T07:31:02.795Z,990.84
2022-11-29T07:32:04.323Z,990.86
2022-11-29T07:33:06.051Z,990.91
2022-11-29T07:34:07.808Z,990.91
2022-11-29T07:35:09.568Z,990.9
2022-11-29T07:36:11.254Z,990.94
2022-11-29T07:37:12.992Z,990.96
2022-11-29T07:38:14.728Z,990.99
2022-11-29T07:39:16.460Z,990.92
2022-11-29T07:40:18.179Z,990.95
2022-11-29T07:41:19.924Z,990.95
2022-11-29T07:42:21.659Z,990.96
2022-11-29T07:43:23.386Z,990.97
2022-11-29T07:44:25.149Z,990.99
2022-11-29T07:45:26.857Z,990.95
2022-11-29T07:46:28.687Z,990.96
2022-11-29T07:47:35.585Z,990.92
2022-11-29T07:48:32.053Z,990.92
2022-11-29T07:49:33.853Z,990.92
2022-11-29T07:50:35.546Z,990.94
2022-11-29T07:51:37.255Z,991
2022-11-29T07:52:39.029Z,990.95
2022-11-29T07:53:40.726Z,990.92
2022-11-29T07:54:42.793Z,990.98
2022-11-29T07:55:44.196Z,990.89
2022-11-29T07:56:45.936Z,991.01
2022-11-29T07:57:47.671Z,990.95
2022-11-29T07:58:49.499Z,990.98
2022-11-29T07:59:51.160Z,991
2022-11-29T08:00:53.013Z,991.02
2022-11-29T08:01:54.666Z,991.01
2022-11-29T08:02:56.338Z,990.98
2022-11-29T08:03:58.067Z,991.03
2022-11-29T08:04:59.811Z,991.01
2022-11-29T08:06:01.563Z,991.03
2022-11-29T08:07:03.302Z,991.04
2022-11-29T08:08:05.046Z,991.05
2022-11-29T08:09:06.738Z,991.05
2022-11-29T08:10:08.529Z,991.04
2022-11-29T08:11:10.199Z,991.03
2022-11-29T08:12:11.972Z,991.12
2022-11-29T08:13:13.672Z,991.1
2022-11-29T08:14:15.405Z,991.06
2022-11-29T08:15:17.127Z,991.12
2022-11-29T08:16:18.994Z,991.06
2022-11-29T08:17:20.614Z,991.12
2022-11-29T08:18:22.336Z,991.17
2022-11-29T08:19:24.113Z,991.16
2022-11-29T08:20:25.805Z,991.19
2022-11-29T08:21:27.587Z,991.17
2022-11-29T08:22:29.326Z,991.19
2022-11-29T08:23:31.058Z,991.18
2022-11-29T08:24:32.745Z,991.14
2022-11-29T08:25:34.490Z,991.16
2022-11-29T08:26:36.255Z,991.23
2022-11-29T08:27:37.942Z,991.19
2022-11-29T08:28:39.712Z,991.17
2022-11-29T08:29:41.415Z,991.19
2022-11-29T08:30:43.149Z,991.25
2022-11-29T08:31:44.965Z,991.21
2022-11-29T08:32:51.267Z,991.22
2022-11-29T08:33:48.347Z,991.28
2022-11-29T08:34:50.112Z,991.29
2022-11-29T08:35:51.821Z,991.32
2022-11-29T08:36:53.569Z,991.31
2022-11-29T08:37:55.277Z,991.32
2022-11-29T08:39:03.443Z,991.32
2022-11-29T08:39:58.797Z,991.31
2022-11-29T08:41:00.472Z,991.35
2022-11-29T08:42:02.254Z,991.31
2022-11-29T08:43:03.970Z,991.26
2022-11-29T08:44:05.710Z,991.29
2022-11-29T08:45:07.451Z,991.34
2022-11-29T08:46:12.500Z,991.35
2022-11-29T08:47:10.886Z,991.35
2022-11-29T08:48:12.626Z,991.33
2022-11-29T08:49:14.386Z,991.35
2022-11-29T08:50:16.085Z,991.37
2022-11-29T08:51:17.866Z,991.33
2022-11-29T08:52:19.580Z,991.28
2022-11-29T08:53:21.288Z,991.32
2022-11-29T08:54:23.065Z,991.35
2022-11-29T08:55:24.766Z,991.38
2022-11-29T08:57:40.711Z,991.4
2022-11-29T08:58:29.955Z,991.42
2022-11-29T08:59:31.739Z,991.37
2022-11-29T09:00:33.444Z,991.38
2022-11-29T09:01:35.267Z,991.41
2022-11-29T09:02:37.029Z,991.33
2022-11-29T09:03:38.631Z,991.41
2022-11-29T09:04:40.366Z,991.48
2022-11-29T09:05:42.127Z,991.41
2022-11-29T09:06:43.860Z,991.48
2022-11-29T09:07:45.684Z,991.48
2022-11-29T09:08:47.283Z,991.5
2022-11-29T09:09:49.029Z,991.5
2022-11-29T09:10:50.744Z,991.53
2022-11-29T09:11:52.484Z,991.49
2022-11-29T09:12:54.223Z,991.55
2022-11-29T09:13:56.010Z,991.54
2022-11-29T09:14:57.679Z,991.53
2022-11-29T09:15:59.460Z,991.55
2022-11-29T09:17:01.156Z,991.54
2022-11-29T09:18:02.889Z,991.56
2022-11-29T09:19:04.676Z,991.57
2022-11-29T09:20:06.370Z,991.6
2022-11-29T09:21:08.107Z,991.58
2022-11-29T09:22:09.828Z,991.64
2022-11-29T09:23:11.563Z,991.62
2022-11-29T09:24:13.311Z,991.63
2022-11-29T09:25:15.040Z,991.72
2022-11-29T09:26:16.769Z,991.72
2022-11-29T09:27:18.507Z,991.72
2022-11-29T09:28:20.256Z,991.66
2022-11-29T09:29:21.960Z,991.75
2022-11-29T09:30:24.032Z,991.73
2022-11-29T09:31:25.472Z,991.75
2022-11-29T09:32:27.170Z,991.72
2022-11-29T09:33:28.940Z,991.77
2022-11-29T09:34:30.643Z,991.75
2022-11-29T09:35:32.421Z,991.78
2022-11-29T09:36:34.322Z,991.77
2022-11-29T09:37:35.858Z,991.73
2022-11-29T09:38:37.611Z,991.75
2022-11-29T09:39:39.307Z,991.77
2022-11-29T09:40:41.092Z,991.76
2022-11-29T09:41:47.032Z,991.83
2022-11-29T09:42:44.505Z,991.86
2022-11-29T09:43:46.237Z,991.83
2022-11-29T09:44:48.339Z,991.89
2022-11-29T09:45:49.822Z,991.87
2022-11-29T09:46:57.185Z,991.84
2022-11-29T09:47:53.225Z,991.85
2022-11-29T09:48:54.955Z,991.86
2022-11-29T09:49:56.708Z,991.89
2022-11-29T09:50:58.411Z,991.81
2022-11-29T09:52:00.141Z,991.88
2022-11-29T09:53:01.858Z,991.9
2022-11-29T09:54:03.615Z,991.91
2022-11-29T09:55:05.320Z,991.91
2022-11-29T09:56:07.068Z,991.95
2022-11-29T09:57:10.875Z,991.85
2022-11-29T09:58:10.526Z,991.94
2022-11-29T09:59:12.289Z,991.91
2022-11-29T10:00:14.005Z,991.9
2022-11-29T10:01:15.816Z,991.85
2022-11-29T10:02:21.407Z,991.92
2022-11-29T10:03:19.232Z,991.84
2022-11-29T10:04:20.974Z,991.87
2022-11-29T10:05:22.692Z,991.86
2022-11-29T10:06:24.404Z,991.92
2022-11-29T10:07:26.167Z,991.96
2022-11-29T10:08:27.849Z,991.9
2022-11-29T10:09:33.312Z,991.92
2022-11-29T10:10:31.330Z,991.88
2022-11-29T10:11:33.099Z,991.91
2022-11-29T10:12:34.780Z,991.92
2022-11-29T10:13:36.550Z,991.84
2022-11-29T10:14:38.262Z,991.89
2022-11-29T10:15:40.035Z,991.98
2022-11-29T10:16:41.928Z,991.92
2022-11-29T10:17:43.508Z,991.92
2022-11-29T10:18:45.199Z,991.94
2022-11-29T10:19:46.951Z,991.93
2022-11-29T10:20:49.257Z,991.93
2022-11-29T10:21:50.406Z,991.93
2022-11-29T10:22:52.145Z,991.9
2022-11-29T10:23:53.872Z,991.95
2022-11-29T10:24:55.646Z,991.88
2022-11-29T10:25:57.364Z,991.95
2022-11-29T10:26:59.089Z,991.93
2022-11-29T10:28:00.824Z,991.91
2022-11-29T10:29:02.556Z,991.96
2022-11-29T10:30:04.266Z,991.88
2022-11-29T10:31:06.111Z,991.88
2022-11-29T10:32:10.354Z,991.88
2022-11-29T10:33:09.517Z,991.88
2022-11-29T10:34:11.198Z,991.86
2022-11-29T10:35:12.933Z,991.88
2022-11-29T10:36:14.668Z,991.92
2022-11-29T10:37:16.410Z,991.91
2022-11-29T10:38:31.440Z,991.88
2022-11-29T10:39:19.910Z,991.9
2022-11-29T10:40:21.616Z,991.91
2022-11-29T10:41:23.336Z,991.92
2022-11-29T10:42:25.122Z,991.94
2022-11-29T10:43:26.804Z,991.89
2022-11-29T10:44:28.527Z,991.92
2022-11-29T10:45:30.318Z,991.94
2022-11-29T10:46:32.077Z,991.91
2022-11-29T10:47:33.765Z,991.95
2022-11-29T10:48:35.532Z,991.93
2022-11-29T10:49:37.277Z,991.91
2022-11-29T10:50:38.979Z,991.98
2022-11-29T10:51:40.692Z,991.95
2022-11-29T10:52:42.469Z,991.97
2022-11-29T10:53:44.192Z,991.97
2022-11-29T10:54:46.198Z,991.96
2022-11-29T10:55:47.625Z,991.96
2022-11-29T10:56:49.397Z,991.94
2022-11-29T10:57:51.106Z,991.97
2022-11-29T10:58:52.813Z,992
2022-11-29T10:59:54.546Z,991.99
2022-11-29T11:00:56.527Z,992
2022-11-29T11:01:58.071Z,991.97
2022-11-29T11:02:59.768Z,992.02
2022-11-29T11:04:01.496Z,992
2022-11-29T11:05:03.271Z,992.02
2022-11-29T11:06:04.970Z,992.01
2022-11-29T11:07:06.694Z,991.97
2022-11-29T11:08:08.426Z,991.96
2022-11-29T11:09:10.174Z,991.97
2022-11-29T11:10:11.927Z,992.02
2022-11-29T11:11:13.624Z,991.95
2022-11-29T11:12:15.370Z,992
2022-11-29T11:13:17.126Z,991.99
2022-11-29T11:14:18.855Z,991.97
2022-11-29T11:15:20.576Z,992
2022-11-29T11:16:22.336Z,991.99
2022-11-29T11:17:24.139Z,991.98
2022-11-29T11:18:25.749Z,991.99
2022-11-29T11:19:27.519Z,991.99
2022-11-29T11:20:29.262Z,992
2022-11-29T11:21:30.975Z,992.02
2022-11-29T11:22:32.694Z,992.05
2022-11-29T11:23:38.657Z,991.96
2022-11-29T11:24:36.165Z,991.99
2022-11-29T11:25:37.920Z,992.05
2022-11-29T11:26:39.687Z,992.02
2022-11-29T11:27:41.390Z,992.03
2022-11-29T11:28:43.086Z,992.07
2022-11-29T11:29:44.810Z,992.04
2022-11-29T11:30:46.631Z,992.01
2022-11-29T11:31:48.344Z,992.04
2022-11-29T11:32:50.036Z,992.05
2022-11-29T11:33:51.762Z,992.03
2022-11-29T11:34:53.549Z,992.03
2022-11-29T11:35:55.227Z,992.02
2022-11-29T11:36:56.964Z,992.06
2022-11-29T11:37:58.730Z,992.04
2022-11-29T11:39:00.474Z,992.03
2022-11-29T11:40:02.328Z,992.03
2022-11-29T11:41:03.904Z,992.08
2022-11-29T11:42:05.683Z,992.08
2022-11-29T11:43:07.356Z,992.09
2022-11-29T11:44:15.273Z,992.1
2022-11-29T11:45:10.870Z,992.09
2022-11-29T11:46:17.798Z,992.1
2022-11-29T11:47:14.307Z,992.08
2022-11-29T11:48:16.038Z,992.11
2022-11-29T11:49:17.777Z,992.12
2022-11-29T11:50:19.490Z,992.15
2022-11-29T11:51:21.239Z,992.12
2022-11-29T11:52:23.017Z,992.14
2022-11-29T11:53:24.701Z,992.14
2022-11-29T11:54:26.446Z,992.12
2022-11-29T11:55:28.209Z,992.14
2022-11-29T11:56:29.893Z,992.16
2022-11-29T11:57:31.659Z,992.16
2022-11-29T11:58:33.360Z,992.17
2022-11-29T11:59:35.137Z,992.16
2022-11-29T12:01:02.303Z,992.15
2022-11-29T12:01:38.581Z,992.15
2022-11-29T12:02:40.722Z,992.22
2022-11-29T12:03:42.164Z,992.17
2022-11-29T12:04:44.082Z,992.18
2022-11-29T12:05:46.466Z,992.16
2022-11-29T12:06:47.244Z,992.11
2022-11-29T12:08:50.778Z,992.15
2022-11-29T12:09:52.434Z,992.16
2022-11-29T12:10:54.164Z,992.16
2022-11-29T12:11:55.918Z,992.12
2022-11-29T12:12:57.629Z,992.15
2022-11-29T12:13:59.394Z,992.13
2022-11-29T12:15:01.159Z,992.16
2022-11-29T12:16:02.909Z,992.13
2022-11-29T12:17:04.579Z,992.16
2022-11-29T12:18:06.306Z,992.22
2022-11-29T12:19:08.061Z,992.15
2022-11-29T12:20:09.778Z,992.16
2022-11-29T12:21:11.560Z,992.2
2022-11-29T12:22:13.305Z,992.14
2022-11-29T12:23:15.017Z,992.2
2022-11-29T12:24:16.758Z,992.19
2022-11-29T12:25:18.513Z,992.14
2022-11-29T12:26:48.928Z,992.21
2022-11-29T12:27:21.972Z,992.18
2022-11-29T12:28:23.700Z,992.22
2022-11-29T12:29:25.458Z,992.2
2022-11-29T12:30:27.183Z,992.23
2022-11-29T12:31:28.959Z,992.26
2022-11-29T12:32:30.670Z,992.21
2022-11-29T12:33:32.359Z,992.16
2022-11-29T12:34:34.055Z,992.27
2022-11-29T12:35:35.751Z,992.26
2022-11-29T12:36:37.525Z,992.24
2022-11-29T12:37:39.208Z,992.22
2022-11-29T12:38:40.947Z,992.3
2022-11-29T12:39:42.708Z,992.27
2022-11-29T12:40:44.417Z,992.32
2022-11-29T12:41:50.934Z,992.31
2022-11-29T12:42:47.939Z,992.27
2022-11-29T12:43:49.613Z,992.35
2022-11-29T12:44:51.349Z,992.28
2022-11-29T12:45:53.135Z,992.3
2022-11-29T12:47:13.241Z,992.35
2022-11-29T12:47:56.610Z,992.33
2022-11-29T12:48:58.290Z,992.35
2022-11-29T12:50:00.017Z,992.34
2022-11-29T12:51:01.807Z,992.29
2022-11-29T12:52:03.493Z,992.37
2022-11-29T12:53:05.211Z,992.34
2022-11-29T12:54:06.953Z,992.33
2022-11-29T12:55:08.707Z,992.34